createdAt,value
2019-02-10T00:00:11.579Z,1.10
2019-02-10T00:01:11.605Z,1.10
2019-02-10T00:02:11.575Z,1.10
2019-02-10T00:03:11.589Z,1.00
2019-02-10T00:04:11.567Z,1.00
2019-02-10T00:05:11.548Z,1.10
2019-02-10T00:06:11.509Z,1.10
2019-02-10T00:07:11.567Z,1.20
2019-02-10T00:08:11.535Z,1.00
2019-02-10T00:09:11.503Z,1.10
2019-02-10T00:10:11.468Z,0.90
2019-02-10T00:11:11.470Z,1.20
2019-02-10T00:12:11.513Z,1.00
2019-02-10T00:13:11.444Z,1.00
2019-02-10T00:14:11.429Z,0.90
2019-02-10T00:15:11.409Z,0.90
2019-02-10T00:16:11.398Z,0.90
2019-02-10T00:17:11.398Z,1.10
2019-02-10T00:18:11.375Z,1.10
2019-02-10T00:19:11.388Z,1.10
2019-02-10T00:20:11.367Z,1.00
2019-02-10T00:21:11.374Z,1.00
2019-02-10T00:22:11.364Z,1.00
2019-02-10T00:23:11.326Z,0.90
2019-02-10T00:24:11.318Z,1.20
2019-02-10T00:25:11.393Z,1.10
2019-02-10T00:26:11.350Z,0.80
2019-02-10T00:27:11.275Z,0.90
2019-02-10T00:28:11.271Z,1.10
2019-02-10T00:29:11.255Z,0.90
2019-02-10T00:30:11.351Z,1.00
2019-02-10T00:31:11.248Z,1.00
2019-02-10T00:32:11.222Z,1.20
2019-02-10T00:33:11.252Z,1.00
2019-02-10T00:34:11.203Z,0.90
2019-02-10T00:35:11.188Z,1.30
2019-02-10T00:36:11.191Z,1.00
2019-02-10T00:37:11.160Z,0.90
2019-02-10T00:38:11.176Z,0.90
2019-02-10T00:39:11.140Z,1.00
2019-02-10T00:40:11.128Z,1.10
2019-02-10T00:41:11.122Z,1.10
2019-02-10T00:42:11.113Z,0.90
2019-02-10T00:43:11.137Z,1.10
2019-02-10T00:44:11.088Z,0.90
2019-02-10T00:45:11.075Z,1.20
2019-02-10T00:46:11.068Z,1.20
2019-02-10T00:47:11.076Z,1.30
2019-02-10T00:48:11.055Z,0.90
2019-02-10T00:49:11.025Z,1.10
2019-02-10T00:50:11.046Z,1.00
2019-02-10T00:51:11.003Z,0.90
2019-02-10T00:52:11.003Z,1.00
2019-02-10T00:53:11.013Z,1.00
2019-02-10T00:54:10.969Z,0.80
2019-02-10T00:55:11.051Z,0.90
2019-02-10T00:56:10.970Z,0.90
2019-02-10T00:57:10.952Z,1.20
2019-02-10T00:58:10.940Z,1.10
2019-02-10T00:59:10.922Z,1.10
2019-02-10T01:00:10.916Z,1.00
2019-02-10T01:01:10.890Z,1.20
2019-02-10T01:02:10.904Z,0.90
2019-02-10T01:03:10.919Z,1.10
2019-02-10T01:04:10.875Z,1.00
2019-02-10T01:05:10.857Z,1.10
2019-02-10T01:06:10.841Z,1.10
2019-02-10T01:07:10.836Z,1.00
2019-02-10T01:08:10.824Z,1.00
2019-02-10T01:09:10.848Z,1.00
2019-02-10T01:10:10.790Z,1.10
2019-02-10T01:11:10.781Z,1.10
2019-02-10T01:12:10.777Z,1.10
2019-02-10T01:13:10.773Z,1.00
2019-02-10T01:14:10.785Z,1.00
2019-02-10T01:15:10.786Z,1.10
2019-02-10T01:16:10.728Z,1.10
2019-02-10T01:17:10.709Z,1.00
2019-02-10T01:18:10.711Z,1.20
2019-02-10T01:19:10.695Z,1.10
2019-02-10T01:20:10.675Z,1.00
2019-02-10T01:21:10.665Z,1.20
2019-02-10T01:22:10.671Z,1.00
2019-02-10T01:23:10.670Z,1.20
2019-02-10T01:24:10.633Z,1.10
2019-02-10T01:25:10.689Z,1.00
2019-02-10T01:26:10.643Z,0.90
2019-02-10T01:27:10.699Z,1.00
2019-02-10T01:28:10.600Z,1.10
2019-02-10T01:29:10.577Z,1.20
2019-02-10T01:30:10.577Z,1.10
2019-02-10T01:31:10.570Z,0.90
2019-02-10T01:32:10.545Z,1.00
2019-02-10T01:33:10.563Z,1.30
2019-02-10T01:34:10.539Z,0.90
2019-02-10T01:35:10.528Z,1.00
2019-02-10T01:36:10.527Z,1.30
2019-02-10T01:37:10.492Z,1.00
2019-02-10T01:38:10.509Z,1.20
2019-02-10T01:39:10.520Z,1.00
2019-02-10T01:40:10.451Z,0.90
2019-02-10T01:41:10.443Z,1.00
2019-02-10T01:42:10.440Z,1.00
2019-02-10T01:43:10.421Z,0.90
2019-02-10T01:44:10.415Z,0.90
2019-02-10T01:45:10.394Z,1.10
2019-02-10T01:46:10.392Z,1.10
2019-02-10T01:47:10.373Z,0.90
2019-02-10T01:48:10.380Z,0.90
2019-02-10T01:49:10.377Z,0.80
2019-02-10T01:50:10.375Z,1.10
2019-02-10T01:51:10.350Z,1.20
2019-02-10T01:52:10.343Z,1.00
2019-02-10T01:53:10.343Z,1.00
2019-02-10T01:54:10.348Z,1.00
2019-02-10T01:55:15.180Z,1.00
2019-02-10T01:56:10.367Z,0.90
2019-02-10T01:57:10.300Z,1.00
2019-02-10T01:58:10.267Z,0.90
2019-02-10T01:59:10.476Z,0.90
2019-02-10T02:00:10.289Z,1.00
2019-02-10T02:01:10.219Z,1.00
2019-02-10T02:02:10.231Z,1.00
2019-02-10T02:03:10.199Z,0.90
2019-02-10T02:04:10.193Z,1.00
2019-02-10T02:05:10.190Z,1.00
2019-02-10T02:06:10.163Z,1.30
2019-02-10T02:07:10.147Z,0.90
2019-02-10T02:08:10.136Z,1.10
2019-02-10T02:09:10.140Z,0.90
2019-02-10T02:10:10.121Z,1.00
2019-02-10T02:11:10.125Z,0.90
2019-02-10T02:12:10.138Z,1.20
2019-02-10T02:13:10.082Z,1.10
2019-02-10T02:14:10.097Z,0.90
2019-02-10T02:15:10.105Z,1.00
2019-02-10T02:16:10.052Z,0.90
2019-02-10T02:17:10.042Z,1.00
2019-02-10T02:18:10.041Z,1.00
2019-02-10T02:19:10.087Z,1.00
2019-02-10T02:20:10.017Z,0.90
2019-02-10T02:21:10.029Z,0.90
2019-02-10T02:22:09.983Z,0.90
2019-02-10T02:23:09.969Z,0.90
2019-02-10T02:24:09.988Z,0.90
2019-02-10T02:25:10.078Z,1.00
2019-02-10T02:26:09.941Z,0.80
2019-02-10T02:27:09.934Z,0.90
2019-02-10T02:28:09.926Z,0.90
2019-02-10T02:29:09.910Z,1.00
2019-02-10T02:30:09.930Z,1.10
2019-02-10T02:31:09.905Z,1.10
2019-02-10T02:32:09.882Z,1.00
2019-02-10T02:33:09.896Z,1.00
2019-02-10T02:34:09.859Z,0.80
2019-02-10T02:35:09.915Z,1.20
2019-02-10T02:36:09.818Z,0.80
2019-02-10T02:37:09.807Z,1.00
2019-02-10T02:38:09.805Z,1.00
2019-02-10T02:39:09.815Z,0.90
2019-02-10T02:40:09.821Z,0.90
2019-02-10T02:41:09.768Z,1.00
2019-02-10T02:42:09.752Z,1.00
2019-02-10T02:43:09.739Z,1.10
2019-02-10T02:44:09.781Z,1.00
2019-02-10T02:45:09.777Z,1.20
2019-02-10T02:46:09.707Z,1.00
2019-02-10T02:47:09.694Z,1.00
2019-02-10T02:48:09.690Z,0.90
2019-02-10T02:49:09.680Z,0.90
2019-02-10T02:50:09.717Z,1.00
2019-02-10T02:51:09.687Z,1.00
2019-02-10T02:52:09.651Z,0.90
2019-02-10T02:53:09.632Z,0.90
2019-02-10T02:54:09.619Z,0.90
2019-02-10T02:55:09.699Z,0.90
2019-02-10T02:56:09.594Z,0.90
2019-02-10T02:57:09.640Z,1.00
2019-02-10T02:58:09.570Z,0.90
2019-02-10T02:59:09.563Z,1.00
2019-02-10T03:00:09.558Z,1.00
2019-02-10T03:01:09.545Z,1.00
2019-02-10T03:02:09.528Z,1.00
2019-02-10T03:03:09.559Z,1.00
2019-02-10T03:04:09.506Z,1.10
2019-02-10T03:05:09.522Z,0.80
2019-02-10T03:06:09.507Z,1.10
2019-02-10T03:07:17.814Z,1.00
2019-02-10T03:08:10.468Z,1.10
2019-02-10T03:09:09.470Z,1.10
2019-02-10T03:10:09.486Z,1.10
2019-02-10T03:11:09.451Z,1.00
2019-02-10T03:12:09.422Z,1.00
2019-02-10T03:13:09.410Z,0.90
2019-02-10T03:14:09.399Z,1.00
2019-02-10T03:15:09.420Z,1.10
2019-02-10T03:16:09.375Z,1.10
2019-02-10T03:17:09.357Z,1.00
2019-02-10T03:18:09.362Z,1.00
2019-02-10T03:19:09.365Z,1.10
2019-02-10T03:20:09.333Z,1.00
2019-02-10T03:21:09.330Z,1.10
2019-02-10T03:22:09.318Z,1.00
2019-02-10T03:23:09.311Z,0.80
2019-02-10T03:24:09.288Z,0.90
2019-02-10T03:25:09.342Z,1.10
2019-02-10T03:26:09.277Z,1.10
2019-02-10T03:27:09.253Z,0.80
2019-02-10T03:28:09.237Z,1.00
2019-02-10T03:29:09.222Z,1.00
2019-02-10T03:30:09.241Z,0.90
2019-02-10T03:31:09.212Z,0.90
2019-02-10T03:32:09.221Z,1.00
2019-02-10T03:33:09.183Z,0.80
2019-02-10T03:34:09.173Z,1.20
2019-02-10T03:35:09.160Z,1.00
2019-02-10T03:36:09.154Z,1.00
2019-02-10T03:37:09.140Z,0.90
2019-02-10T03:38:09.125Z,1.00
2019-02-10T03:39:09.141Z,0.90
2019-02-10T03:40:09.111Z,1.00
2019-02-10T03:41:09.125Z,0.90
2019-02-10T03:42:09.084Z,0.70
2019-02-10T03:43:09.063Z,1.00
2019-02-10T03:44:09.061Z,0.90
2019-02-10T03:45:09.067Z,1.10
2019-02-10T03:46:09.056Z,0.90
2019-02-10T03:47:09.037Z,1.00
2019-02-10T03:48:09.006Z,1.10
2019-02-10T03:49:09.014Z,1.00
2019-02-10T03:50:08.988Z,1.00
2019-02-10T03:51:09.018Z,0.90
2019-02-10T03:52:08.975Z,0.90
2019-02-10T03:53:08.952Z,1.00
2019-02-10T03:54:08.977Z,0.80
2019-02-10T03:55:08.985Z,0.90
2019-02-10T03:56:08.933Z,1.20
2019-02-10T03:57:08.922Z,1.20
2019-02-10T03:58:08.895Z,0.90
2019-02-10T03:59:08.887Z,0.90
2019-02-10T04:00:08.872Z,1.00
2019-02-10T04:01:08.916Z,1.00
2019-02-10T04:02:08.853Z,1.00
2019-02-10T04:03:08.896Z,0.90
2019-02-10T04:04:08.957Z,0.80
2019-02-10T04:05:08.835Z,0.90
2019-02-10T04:06:08.823Z,1.10
2019-02-10T04:07:08.796Z,0.80
2019-02-10T04:08:08.785Z,0.80
2019-02-10T04:09:08.778Z,1.00
2019-02-10T04:10:08.771Z,1.00
2019-02-10T04:11:08.770Z,1.00
2019-02-10T04:12:08.755Z,1.10
2019-02-10T04:13:08.742Z,0.90
2019-02-10T04:14:08.743Z,1.10
2019-02-10T04:15:08.705Z,1.10
2019-02-10T04:16:08.716Z,1.00
2019-02-10T04:17:08.680Z,0.90
2019-02-10T04:18:08.683Z,0.90
2019-02-10T04:19:08.660Z,0.90
2019-02-10T04:20:08.679Z,0.90
2019-02-10T04:21:08.653Z,0.80
2019-02-10T04:22:08.657Z,1.00
2019-02-10T04:23:08.620Z,0.90
2019-02-10T04:24:08.602Z,1.10
2019-02-10T04:25:13.630Z,0.90
2019-02-10T04:26:08.583Z,0.90
2019-02-10T04:27:08.604Z,1.00
2019-02-10T04:28:08.581Z,0.90
2019-02-10T04:29:08.548Z,0.80
2019-02-10T04:30:09.296Z,1.10
2019-02-10T04:31:08.537Z,1.10
2019-02-10T04:32:08.518Z,1.00
2019-02-10T04:33:08.519Z,0.90
2019-02-10T04:34:08.502Z,0.80
2019-02-10T04:35:08.500Z,0.90
2019-02-10T04:36:08.479Z,0.80
2019-02-10T04:37:08.468Z,0.80
2019-02-10T04:38:08.461Z,1.00
2019-02-10T04:39:08.466Z,0.80
2019-02-10T04:40:08.426Z,0.90
2019-02-10T04:41:08.410Z,0.90
2019-02-10T04:42:08.417Z,0.90
2019-02-10T04:43:08.403Z,0.80
2019-02-10T04:44:08.394Z,1.10
2019-02-10T04:45:08.385Z,1.10
2019-02-10T04:46:08.390Z,0.90
2019-02-10T04:47:08.374Z,0.80
2019-02-10T04:48:08.341Z,1.00
2019-02-10T04:49:08.381Z,0.80
2019-02-10T04:50:08.336Z,0.70
2019-02-10T04:51:08.313Z,0.80
2019-02-10T04:52:08.299Z,0.80
2019-02-10T04:53:08.306Z,1.00
2019-02-10T04:54:08.271Z,0.90
2019-02-10T04:55:08.360Z,0.90
2019-02-10T04:56:08.275Z,1.00
2019-02-10T04:57:08.249Z,0.90
2019-02-10T04:58:08.242Z,0.90
2019-02-10T04:59:08.213Z,0.90
2019-02-10T05:00:08.200Z,0.80
2019-02-10T05:01:08.189Z,1.10
2019-02-10T05:02:08.185Z,0.90
2019-02-10T05:03:08.178Z,1.10
2019-02-10T05:04:08.156Z,1.10
2019-02-10T05:05:08.142Z,1.00
2019-02-10T05:06:08.133Z,0.90
2019-02-10T05:07:08.149Z,1.00
2019-02-10T05:08:08.124Z,0.90
2019-02-10T05:09:08.116Z,0.90
2019-02-10T05:10:08.106Z,0.90
2019-02-10T05:11:08.078Z,0.90
2019-02-10T05:12:08.064Z,0.80
2019-02-10T05:13:08.129Z,1.10
2019-02-10T05:14:08.049Z,0.80
2019-02-10T05:15:08.058Z,0.90
2019-02-10T05:16:08.043Z,0.80
2019-02-10T05:17:08.010Z,1.20
2019-02-10T05:18:08.050Z,1.00
2019-02-10T05:19:07.991Z,1.00
2019-02-10T05:20:07.980Z,0.80
2019-02-10T05:21:07.972Z,1.00
2019-02-10T05:22:07.973Z,0.90
2019-02-10T05:23:07.960Z,0.80
2019-02-10T05:24:07.932Z,0.90
2019-02-10T05:25:08.003Z,0.90
2019-02-10T05:26:07.910Z,0.80
2019-02-10T05:27:07.920Z,1.00
2019-02-10T05:28:07.949Z,1.00
2019-02-10T05:29:07.899Z,0.90
2019-02-10T05:30:07.872Z,1.00
2019-02-10T05:31:07.851Z,0.90
2019-02-10T05:32:07.852Z,0.90
2019-02-10T05:33:07.877Z,1.00
2019-02-10T05:34:07.825Z,1.00
2019-02-10T05:35:07.811Z,0.90
2019-02-10T05:36:07.819Z,1.00
2019-02-10T05:37:07.794Z,0.90
2019-02-10T05:38:07.806Z,0.80
2019-02-10T05:39:07.798Z,0.90
2019-02-10T05:40:07.760Z,0.80
2019-02-10T05:41:07.759Z,0.70
2019-02-10T05:42:07.793Z,0.90
2019-02-10T05:43:07.827Z,0.80
2019-02-10T05:44:07.767Z,0.90
2019-02-10T05:45:07.693Z,1.00
2019-02-10T05:46:07.691Z,1.10
2019-02-10T05:47:07.675Z,0.80
2019-02-10T05:48:07.690Z,0.90
2019-02-10T05:49:07.674Z,0.90
2019-02-10T05:50:07.643Z,1.00
2019-02-10T05:51:07.641Z,0.90
2019-02-10T05:52:07.613Z,1.00
2019-02-10T05:53:07.616Z,0.90
2019-02-10T05:54:07.612Z,1.00
2019-02-10T05:55:07.672Z,0.80
2019-02-10T05:56:07.571Z,0.90
2019-02-10T05:57:07.573Z,1.00
2019-02-10T05:58:07.568Z,0.90
2019-02-10T05:59:07.548Z,0.90
2019-02-10T06:00:07.528Z,0.70
2019-02-10T06:01:07.544Z,1.00
2019-02-10T06:02:07.503Z,0.90
2019-02-10T06:03:07.492Z,0.80
2019-02-10T06:04:07.491Z,0.90
2019-02-10T06:05:07.489Z,0.80
2019-02-10T06:06:07.462Z,0.90
2019-02-10T06:07:07.491Z,1.00
2019-02-10T06:08:12.849Z,0.80
2019-02-10T06:09:08.433Z,0.90
2019-02-10T06:10:07.419Z,0.90
2019-02-10T06:11:07.403Z,0.80
2019-02-10T06:12:07.395Z,0.90
2019-02-10T06:13:07.382Z,0.90
2019-02-10T06:14:07.411Z,0.90
2019-02-10T06:15:07.401Z,0.90
2019-02-10T06:16:07.347Z,0.80
2019-02-10T06:17:07.356Z,0.80
2019-02-10T06:18:07.330Z,0.80
2019-02-10T06:19:07.327Z,0.90
2019-02-10T06:20:07.379Z,1.00
2019-02-10T06:21:07.314Z,0.80
2019-02-10T06:22:07.284Z,1.10
2019-02-10T06:23:07.266Z,0.70
2019-02-10T06:24:07.273Z,0.90
2019-02-10T06:25:07.247Z,0.70
2019-02-10T06:26:07.233Z,0.80
2019-02-10T06:27:07.237Z,0.80
2019-02-10T06:28:07.209Z,1.00
2019-02-10T06:29:07.207Z,0.80
2019-02-10T06:30:07.186Z,0.80
2019-02-10T06:31:07.177Z,0.90
2019-02-10T06:32:07.169Z,0.80
2019-02-10T06:33:07.182Z,0.90
2019-02-10T06:34:07.156Z,0.70
2019-02-10T06:35:07.138Z,0.80
2019-02-10T06:36:07.119Z,1.00
2019-02-10T06:37:07.113Z,0.80
2019-02-10T06:38:07.098Z,0.60
2019-02-10T06:39:07.159Z,0.80
2019-02-10T06:40:07.077Z,0.70
2019-02-10T06:41:07.072Z,0.90
2019-02-10T06:42:07.052Z,0.90
2019-02-10T06:43:07.044Z,0.70
2019-02-10T06:44:07.042Z,0.90
2019-02-10T06:45:07.046Z,0.80
2019-02-10T06:46:07.024Z,0.70
2019-02-10T06:47:06.996Z,0.80
2019-02-10T06:48:06.997Z,0.90
2019-02-10T06:49:06.978Z,0.70
2019-02-10T06:50:06.984Z,0.70
2019-02-10T06:51:06.967Z,0.90
2019-02-10T06:52:06.938Z,1.00
2019-02-10T06:53:06.950Z,0.80
2019-02-10T06:54:06.921Z,0.60
2019-02-10T06:55:07.022Z,0.70
2019-02-10T06:56:06.900Z,0.60
2019-02-10T06:57:06.882Z,0.70
2019-02-10T06:58:06.876Z,0.70
2019-02-10T06:59:06.858Z,0.80
2019-02-10T07:00:06.879Z,0.90
2019-02-10T07:01:06.922Z,0.90
2019-02-10T07:02:06.849Z,0.90
2019-02-10T07:03:06.821Z,0.80
2019-02-10T07:04:06.803Z,0.70
2019-02-10T07:05:06.882Z,1.00
2019-02-10T07:06:06.779Z,0.70
2019-02-10T07:07:06.786Z,0.80
2019-02-10T07:08:06.817Z,1.00
2019-02-10T07:09:06.752Z,0.80
2019-02-10T07:10:06.755Z,0.80
2019-02-10T07:11:06.723Z,0.80
2019-02-10T07:12:06.720Z,0.80
2019-02-10T07:13:06.721Z,0.90
2019-02-10T07:14:06.725Z,0.80
2019-02-10T07:15:06.708Z,0.70
2019-02-10T07:16:06.667Z,0.90
2019-02-10T07:17:06.678Z,0.90
2019-02-10T07:18:06.644Z,0.80
2019-02-10T07:19:06.715Z,0.90
2019-02-10T07:20:06.636Z,0.70
2019-02-10T07:21:06.641Z,0.70
2019-02-10T07:22:06.636Z,0.80
2019-02-10T07:23:06.602Z,0.70
2019-02-10T07:24:06.615Z,0.70
2019-02-10T07:25:06.670Z,0.70
2019-02-10T07:26:06.555Z,0.70
2019-02-10T07:27:06.550Z,0.60
2019-02-10T07:28:07.058Z,0.60
2019-02-10T07:29:06.544Z,0.70
2019-02-10T07:30:06.550Z,0.80
2019-02-10T07:31:06.521Z,0.80
2019-02-10T07:32:06.497Z,0.70
2019-02-10T07:33:06.481Z,0.70
2019-02-10T07:34:06.469Z,0.90
2019-02-10T07:35:06.453Z,0.70
2019-02-10T07:36:06.482Z,0.70
2019-02-10T07:37:06.445Z,0.80
2019-02-10T07:38:06.420Z,0.80
2019-02-10T07:39:06.414Z,0.80
2019-02-10T07:40:06.408Z,0.70
2019-02-10T07:41:06.398Z,0.90
2019-02-10T07:42:06.391Z,0.70
2019-02-10T07:43:06.379Z,1.00
2019-02-10T07:44:06.355Z,0.70
2019-02-10T07:45:06.344Z,0.90
2019-02-10T07:46:06.358Z,0.70
2019-02-10T07:47:06.326Z,0.70
2019-02-10T07:48:06.315Z,0.70
2019-02-10T07:49:06.308Z,0.80
2019-02-10T07:50:06.286Z,0.80
2019-02-10T07:51:06.283Z,0.80
2019-02-10T07:52:06.265Z,0.80
2019-02-10T07:53:06.252Z,0.90
2019-02-10T07:54:06.238Z,0.80
2019-02-10T07:55:06.317Z,0.70
2019-02-10T07:56:06.224Z,0.80
2019-02-10T07:57:06.273Z,0.70
2019-02-10T07:58:06.195Z,0.60
2019-02-10T07:59:06.187Z,0.70
2019-02-10T08:00:06.169Z,0.80
2019-02-10T08:01:06.213Z,0.70
2019-02-10T08:02:06.179Z,0.70
2019-02-10T08:03:06.143Z,0.70
2019-02-10T08:04:06.131Z,0.60
2019-02-10T08:05:06.123Z,0.70
2019-02-10T08:06:06.111Z,0.70
2019-02-10T08:07:06.105Z,0.80
2019-02-10T08:08:06.087Z,0.70
2019-02-10T08:09:06.071Z,0.80
2019-02-10T08:10:06.073Z,0.70
2019-02-10T08:11:06.084Z,0.80
2019-02-10T08:12:06.063Z,0.80
2019-02-10T08:13:06.026Z,0.80
2019-02-10T08:14:06.016Z,0.80
2019-02-10T08:15:06.003Z,0.80
2019-02-10T08:16:05.992Z,0.60
2019-02-10T08:17:05.997Z,0.70
2019-02-10T08:18:06.028Z,0.70
2019-02-10T08:19:05.972Z,0.70
2019-02-10T08:20:05.957Z,0.70
2019-02-10T08:21:05.936Z,0.60
2019-02-10T08:22:05.945Z,0.70
2019-02-10T08:23:05.911Z,0.70
2019-02-10T08:24:05.920Z,0.70
2019-02-10T08:25:05.981Z,0.80
2019-02-10T08:26:05.897Z,0.80
2019-02-10T08:27:05.883Z,0.70
2019-02-10T08:28:05.856Z,0.80
2019-02-10T08:29:05.849Z,0.80
2019-02-10T08:30:05.867Z,0.60
2019-02-10T08:31:05.841Z,0.90
2019-02-10T08:32:05.826Z,0.70
2019-02-10T08:33:05.833Z,0.70
2019-02-10T08:34:05.794Z,0.80
2019-02-10T08:35:05.776Z,0.60
2019-02-10T08:36:05.790Z,0.50
2019-02-10T08:37:05.763Z,0.70
2019-02-10T08:38:05.745Z,0.80
2019-02-10T08:39:05.748Z,0.60
2019-02-10T08:40:05.724Z,0.80
2019-02-10T08:41:05.739Z,0.70
2019-02-10T08:42:05.749Z,0.60
2019-02-10T08:43:05.704Z,0.80
2019-02-10T08:44:05.683Z,0.70
2019-02-10T08:45:05.678Z,0.80
2019-02-10T08:46:05.656Z,0.60
2019-02-10T08:47:05.678Z,0.70
2019-02-10T08:48:05.654Z,0.70
2019-02-10T08:49:05.632Z,0.70
2019-02-10T08:50:05.623Z,0.70
2019-02-10T08:51:05.597Z,0.70
2019-02-10T08:52:05.621Z,0.90
2019-02-10T08:53:05.573Z,0.70
2019-02-10T08:54:05.561Z,0.80
2019-02-10T08:55:05.611Z,0.80
2019-02-10T08:56:05.551Z,0.80
2019-02-10T08:57:05.570Z,0.60
2019-02-10T08:58:05.531Z,0.60
2019-02-10T08:59:05.509Z,0.70
2019-02-10T09:00:05.497Z,0.60
2019-02-10T09:01:05.493Z,0.80
2019-02-10T09:02:05.477Z,0.60
2019-02-10T09:03:05.529Z,0.80
2019-02-10T09:04:05.450Z,0.60
2019-02-10T09:05:05.441Z,0.50
2019-02-10T09:06:05.432Z,0.70
2019-02-10T09:07:05.426Z,0.80
2019-02-10T09:08:05.454Z,0.60
2019-02-10T09:09:05.408Z,0.80
2019-02-10T09:10:05.401Z,0.60
2019-02-10T09:11:05.371Z,0.70
2019-02-10T09:12:05.361Z,0.70
2019-02-10T09:13:05.361Z,0.70
2019-02-10T09:14:05.370Z,0.70
2019-02-10T09:15:05.393Z,0.60
2019-02-10T09:16:05.321Z,0.60
2019-02-10T09:17:05.307Z,0.60
2019-02-10T09:18:05.306Z,0.70
2019-02-10T09:19:05.290Z,0.80
2019-02-10T09:20:05.273Z,0.60
2019-02-10T09:21:05.260Z,0.60
2019-02-10T09:22:05.278Z,0.80
2019-02-10T09:23:05.247Z,0.70
2019-02-10T09:24:05.229Z,0.60
2019-02-10T09:25:05.333Z,0.70
2019-02-10T09:26:05.204Z,0.60
2019-02-10T09:27:05.241Z,0.60
2019-02-10T09:28:05.197Z,0.70
2019-02-10T09:29:05.172Z,0.70
2019-02-10T09:30:05.158Z,0.60
2019-02-10T09:31:05.176Z,0.80
2019-02-10T09:32:05.137Z,0.60
2019-02-10T09:33:05.208Z,0.60
2019-02-10T09:34:05.128Z,0.60
2019-02-10T09:35:05.141Z,0.60
2019-02-10T09:36:05.093Z,0.70
2019-02-10T09:37:05.079Z,0.70
2019-02-10T09:38:05.080Z,0.70
2019-02-10T09:39:10.579Z,0.70
2019-02-10T09:40:06.068Z,0.70
2019-02-10T09:41:05.051Z,0.60
2019-02-10T09:42:05.023Z,0.60
2019-02-10T09:43:05.046Z,0.70
2019-02-10T09:44:05.005Z,0.60
2019-02-10T09:45:04.988Z,0.60
2019-02-10T09:46:04.998Z,0.60
2019-02-10T09:47:04.997Z,0.60
2019-02-10T09:48:04.967Z,0.70
2019-02-10T09:49:04.961Z,0.70
2019-02-10T09:50:04.945Z,0.70
2019-02-10T09:51:04.929Z,0.70
2019-02-10T09:52:04.911Z,0.60
2019-02-10T09:53:04.901Z,0.70
2019-02-10T09:54:04.931Z,0.60
2019-02-10T09:55:04.978Z,0.80
2019-02-10T09:56:04.874Z,0.80
2019-02-10T09:57:04.886Z,0.70
2019-02-10T09:58:04.857Z,0.60
2019-02-10T09:59:04.864Z,0.60
2019-02-10T10:00:04.832Z,0.60
2019-02-10T10:01:04.857Z,0.70
2019-02-10T10:02:04.821Z,0.60
2019-02-10T10:03:04.788Z,0.50
2019-02-10T10:04:04.786Z,0.60
2019-02-10T10:05:04.790Z,0.60
2019-02-10T10:06:04.787Z,0.60
2019-02-10T10:07:04.780Z,0.60
2019-02-10T10:08:04.731Z,0.60
2019-02-10T10:09:04.792Z,0.70
2019-02-10T10:10:04.706Z,0.60
2019-02-10T10:11:04.703Z,0.50
2019-02-10T10:12:04.686Z,0.70
2019-02-10T10:13:04.676Z,0.60
2019-02-10T10:14:04.693Z,0.70
2019-02-10T10:15:04.663Z,0.60
2019-02-10T10:16:04.658Z,0.60
2019-02-10T10:17:04.638Z,0.60
2019-02-10T10:18:04.666Z,0.70
2019-02-10T10:19:04.609Z,0.70
2019-02-10T10:20:04.605Z,0.70
2019-02-10T10:21:04.587Z,0.80
2019-02-10T10:22:04.773Z,0.80
2019-02-10T10:23:04.565Z,0.50
2019-02-10T10:24:04.722Z,0.70
2019-02-10T10:25:04.773Z,0.60
2019-02-10T10:26:04.534Z,0.60
2019-02-10T10:27:04.525Z,0.50
2019-02-10T10:28:04.510Z,0.70
2019-02-10T10:29:04.501Z,0.60
2019-02-10T10:30:04.495Z,0.60
2019-02-10T10:31:04.480Z,0.60
2019-02-10T10:32:04.493Z,0.70
2019-02-10T10:33:04.465Z,0.60
2019-02-10T10:34:04.506Z,0.60
2019-02-10T10:35:04.465Z,0.80
2019-02-10T10:36:04.421Z,0.70
2019-02-10T10:37:04.435Z,0.80
2019-02-10T10:38:04.414Z,0.70
2019-02-10T10:39:04.382Z,0.60
2019-02-10T10:40:04.428Z,0.50
2019-02-10T10:41:04.442Z,0.60
2019-02-10T10:42:04.383Z,0.60
2019-02-10T10:43:04.336Z,0.70
2019-02-10T10:44:04.428Z,0.60
2019-02-10T10:45:04.335Z,0.60
2019-02-10T10:46:04.354Z,0.70
2019-02-10T10:47:04.294Z,0.60
2019-02-10T10:48:04.409Z,0.60
2019-02-10T10:49:04.272Z,0.60
2019-02-10T10:50:04.318Z,0.60
2019-02-10T10:51:04.333Z,0.60
2019-02-10T10:52:04.251Z,0.60
2019-02-10T10:53:04.227Z,0.60
2019-02-10T10:54:04.233Z,0.70
2019-02-10T10:55:04.254Z,0.60
2019-02-10T10:56:04.197Z,0.60
2019-02-10T10:57:04.274Z,0.70
2019-02-10T10:58:04.168Z,0.60
2019-02-10T10:59:04.348Z,0.50
2019-02-10T11:00:04.161Z,0.60
2019-02-10T11:01:04.138Z,0.80
2019-02-10T11:02:04.180Z,0.50
2019-02-10T11:03:04.114Z,0.70
2019-02-10T11:04:04.109Z,0.60
2019-02-10T11:05:04.103Z,0.70
2019-02-10T11:06:04.088Z,0.50
2019-02-10T11:07:04.177Z,0.60
2019-02-10T11:08:04.084Z,0.60
2019-02-10T11:09:04.049Z,0.60
2019-02-10T11:10:04.072Z,0.60
2019-02-10T11:11:04.040Z,0.70
2019-02-10T11:12:04.011Z,0.70
2019-02-10T11:13:04.024Z,0.50
2019-02-10T11:14:03.990Z,0.60
2019-02-10T11:15:04.014Z,0.60
2019-02-10T11:16:03.977Z,0.60
2019-02-10T11:17:03.957Z,0.60
2019-02-10T11:18:03.966Z,0.50
2019-02-10T11:19:03.995Z,0.70
2019-02-10T11:20:03.939Z,0.60
2019-02-10T11:21:03.914Z,0.60
2019-02-10T11:22:03.931Z,0.60
2019-02-10T11:23:03.929Z,0.60
2019-02-10T11:24:03.875Z,0.60
2019-02-10T11:25:04.092Z,0.60
2019-02-10T11:26:03.934Z,0.50
2019-02-10T11:27:03.847Z,0.60
2019-02-10T11:28:03.842Z,0.70
2019-02-10T11:29:03.824Z,0.60
2019-02-10T11:30:04.044Z,0.50
2019-02-10T11:31:03.811Z,0.50
2019-02-10T11:32:03.849Z,0.60
2019-02-10T11:33:03.780Z,0.60
2019-02-10T11:34:03.764Z,0.70
2019-02-10T11:35:03.756Z,0.70
2019-02-10T11:36:03.753Z,0.50
2019-02-10T11:37:03.730Z,0.80
2019-02-10T11:38:03.732Z,0.60
2019-02-10T11:39:03.741Z,0.50
2019-02-10T11:40:03.698Z,0.60
2019-02-10T11:41:03.698Z,0.50
2019-02-10T11:42:03.677Z,0.70
2019-02-10T11:43:03.669Z,0.50
2019-02-10T11:44:03.651Z,0.60
2019-02-10T11:45:03.655Z,0.60
2019-02-10T11:46:03.667Z,0.70
2019-02-10T11:47:03.628Z,0.70
2019-02-10T11:48:03.606Z,0.60
2019-02-10T11:49:03.604Z,0.60
2019-02-10T11:50:03.585Z,0.60
2019-02-10T11:51:03.585Z,0.40
2019-02-10T11:52:03.584Z,0.60
2019-02-10T11:53:03.553Z,0.60
2019-02-10T11:54:03.551Z,0.50
2019-02-10T11:55:03.632Z,0.70
2019-02-10T11:56:03.527Z,0.70
2019-02-10T11:57:03.538Z,0.80
2019-02-10T11:58:03.549Z,0.60
2019-02-10T11:59:03.492Z,0.50
2019-02-10T12:00:03.474Z,0.60
2019-02-10T12:01:03.519Z,0.60
2019-02-10T12:02:03.453Z,0.70
2019-02-10T12:03:03.439Z,0.50
2019-02-10T12:04:03.438Z,0.60
2019-02-10T12:05:03.423Z,0.60
2019-02-10T12:06:03.416Z,0.50
2019-02-10T12:07:03.394Z,0.50
2019-02-10T12:08:03.390Z,0.60
2019-02-10T12:09:03.383Z,0.60
2019-02-10T12:10:03.394Z,0.50
2019-02-10T12:11:03.360Z,0.50
2019-02-10T12:12:03.345Z,0.70
2019-02-10T12:13:03.328Z,0.70
2019-02-10T12:14:03.324Z,0.90
2019-02-10T12:15:03.316Z,0.50
2019-02-10T12:16:03.317Z,0.50
2019-02-10T12:17:03.280Z,0.60
2019-02-10T12:18:03.269Z,0.50
2019-02-10T12:19:03.258Z,0.60
2019-02-10T12:20:03.246Z,0.60
2019-02-10T12:21:03.256Z,0.40
2019-02-10T12:22:03.247Z,0.50
2019-02-10T12:23:03.221Z,0.60
2019-02-10T12:24:03.215Z,0.50
2019-02-10T12:25:03.270Z,0.60
2019-02-10T12:26:03.201Z,0.60
2019-02-10T12:27:03.178Z,0.50
2019-02-10T12:28:03.175Z,0.50
2019-02-10T12:29:03.146Z,0.70
2019-02-10T12:30:03.316Z,0.60
2019-02-10T12:31:03.139Z,0.50
2019-02-10T12:32:03.132Z,0.60
2019-02-10T12:33:03.105Z,0.70
2019-02-10T12:34:03.126Z,0.60
2019-02-10T12:35:03.110Z,0.60
2019-02-10T12:36:03.196Z,0.60
2019-02-10T12:37:03.062Z,0.60
2019-02-10T12:38:03.050Z,0.50
2019-02-10T12:39:03.032Z,0.60
2019-02-10T12:40:03.032Z,0.70
2019-02-10T12:41:03.029Z,0.70
2019-02-10T12:42:03.015Z,0.60
2019-02-10T12:43:03.030Z,0.60
2019-02-10T12:44:02.981Z,0.60
2019-02-10T12:45:02.967Z,0.50
2019-02-10T12:46:02.959Z,0.60
2019-02-10T12:47:02.973Z,0.60
2019-02-10T12:48:02.933Z,0.60
2019-02-10T12:49:02.930Z,0.60
2019-02-10T12:50:02.911Z,0.60
2019-02-10T12:51:02.925Z,0.50
2019-02-10T12:52:02.895Z,0.50
2019-02-10T12:53:02.910Z,0.60
2019-02-10T12:54:02.871Z,0.60
2019-02-10T12:55:02.915Z,0.60
2019-02-10T12:56:02.847Z,0.50
2019-02-10T12:57:02.842Z,0.60
2019-02-10T12:58:02.829Z,0.50
2019-02-10T12:59:02.826Z,0.60
2019-02-10T13:00:02.886Z,0.60
2019-02-10T13:01:02.795Z,0.60
2019-02-10T13:02:02.792Z,0.70
2019-02-10T13:03:02.768Z,0.60
2019-02-10T13:04:02.762Z,0.50
2019-02-10T13:05:02.747Z,0.50
2019-02-10T13:06:02.746Z,0.60
2019-02-10T13:07:02.729Z,0.60
2019-02-10T13:08:02.723Z,0.60
2019-02-10T13:09:02.695Z,0.60
2019-02-10T13:10:07.954Z,0.70
2019-02-10T13:11:03.718Z,0.70
2019-02-10T13:12:02.680Z,0.50
2019-02-10T13:13:02.682Z,0.60
2019-02-10T13:14:02.668Z,0.50
2019-02-10T13:15:02.651Z,0.60
2019-02-10T13:16:02.627Z,0.70
2019-02-10T13:17:02.690Z,0.60
2019-02-10T13:18:02.617Z,0.50